Terminal Aerodrome Forecast
Issued by NWS Greer, SC

Home | Current Version | Previous Version | Text Only | Print | Product List | Glossary On
Versions: 1 2 3 4 5 6 7 8 9 10 11 12 13 14 15 16 17 18 19 20 21 22 23 24 25 26 27 28 29 30 31 32
000
FTUS42 KGSP 301233 AAA
TAFAVL
TAF AMD
KAVL 301233Z 3013/3112 34006KT P6SM BKN035 OVC060
      TEMPO 3014/3016 35008KT P6SM OVC025
     FM301600 35012G20KT P6SM SCT050
     FM301800 36013G22KT P6SM FEW250
     FM302300 32009KT P6SM FEW250
     FM310200 32005KT P6SM FEW250=

USA.gov is the U.S. government's official web portal to all federal, state and local government web resources and services.